Time;durP1;ratioP1;P1;durP2;ratioP2;P2;SDS_P1;SDS_P2;PMS_P1;PMS_P2;Temp;Humidity;BMP_temperature;BMP_pressure;BME280_temperature;BME280_humidity;BME280_pressure;Samples;Min_cycle;Max_cycle;Signal;HPM_P1;HPM_P2
2023/06/20 00:01:37;;;;;;;12.00;7.73;;;;;;;-145.18;100.00;46547.09;5076739;28;20560;-59
2023/06/20 00:04:02;;;;;;;12.37;7.27;;;;;;;-145.18;100.00;46551.00;5074762;28;20476;-59
2023/06/20 00:06:28;;;;;;;9.53;7.13;;;;;;;-145.18;100.00;46543.19;5074474;28;20067;-59
2023/06/20 00:08:53;;;;;;;14.00;7.10;;;;;;;-145.18;100.00;46535.38;5076002;28;20101;-59
2023/06/20 00:11:18;;;;;;;12.37;7.53;;;;;;;-145.18;100.00;46547.09;5074370;28;20039;-59
2023/06/20 00:13:44;;;;;;;12.60;7.50;;;;;;;-145.18;100.00;46535.38;5074990;28;20040;-58
2023/06/20 00:16:10;;;;;;;10.73;7.43;;;;;;;-145.18;100.00;46552.97;5077765;28;20032;-59
2023/06/20 00:18:35;;;;;;;10.90;6.97;;;;;;;-145.18;100.00;46545.16;5073904;28;20032;-58
2023/06/20 00:21:01;;;;;;;11.27;6.70;;;;;;;-145.18;100.00;46535.38;5076376;28;20051;-59
2023/06/20 00:23:29;;;;;;;12.13;7.03;;;;;;;-145.18;100.00;46543.19;5074187;28;20101;-58
2023/06/20 00:25:55;;;;;;;9.17;6.57;;;;;;;-145.18;100.00;46531.47;5076178;28;20074;-59
2023/06/20 00:28:21;;;;;;;11.27;6.97;;;;;;;-145.18;100.00;46533.44;5056125;28;20029;-59
2023/06/20 00:30:46;;;;;;;10.60;6.60;;;;;;;-145.18;100.00;46539.28;5076056;28;20450;-59
2023/06/20 00:33:11;;;;;;;9.00;6.40;;;;;;;-145.18;100.00;46529.53;5076344;28;20039;-59
2023/06/20 00:35:37;;;;;;;11.77;6.77;;;;;;;-145.18;100.00;46543.19;5074615;28;20042;-59
2023/06/20 00:38:03;;;;;;;9.70;6.73;;;;;;;-145.18;100.00;46543.19;5074993;28;20060;-58
2023/06/20 00:40:28;;;;;;;9.47;6.87;;;;;;;-145.18;100.00;46535.38;5075538;28;20036;-59
2023/06/20 00:42:54;;;;;;;11.50;5.77;;;;;;;-145.18;100.00;46554.91;5055933;28;20036;-59
2023/06/20 00:45:25;;;;;;;8.60;5.40;;;;;;;-145.18;100.00;46539.28;5073681;28;20739;-58
2023/06/20 00:47:52;;;;;;;8.13;5.40;;;;;;;-145.18;100.00;46558.81;5074384;28;20086;-59
2023/06/20 00:50:18;;;;;;;7.43;5.57;;;;;;;-145.18;100.00;46541.25;5073625;28;20048;-59
2023/06/20 00:52:44;;;;;;;9.43;5.07;;;;;;;-145.18;100.00;46547.09;5074329;28;20452;-59
2023/06/20 00:55:10;;;;;;;7.47;5.20;;;;;;;-145.18;100.00;46572.50;5074453;28;20107;-59
2023/06/20 00:57:37;;;;;;;8.70;5.23;;;;;;;-145.18;100.00;46566.63;5073166;28;20116;-58
2023/06/20 01:00:06;;;;;;;7.90;5.40;;;;;;;-145.18;100.00;46584.22;5074068;28;20036;-59
2023/06/20 01:02:32;;;;;;;9.23;5.80;;;;;;;-145.18;100.00;46592.03;5038562;28;20063;-59
2023/06/20 01:04:57;;;;;;;7.17;4.80;;;;;;;-145.18;100.00;46605.69;5072938;28;20462;-59
2023/06/20 01:07:34;;;;;;;8.97;5.50;;;;;;;-145.18;100.00;46580.31;5054865;28;20029;-59
2023/06/20 01:10:39;;;;;;;6.63;5.23;;;;;;;-145.18;100.00;46599.84;5074219;28;20134;-59
2023/06/20 01:13:13;;;;;;;6.73;5.07;;;;;;;-145.18;100.00;46576.41;4971079;28;20037;-59
2023/06/20 01:16:15;;;;;;;9.37;5.43;;;;;;;-145.18;100.00;46597.88;5057677;28;20040;-59
2023/06/20 01:19:17;;;;;;;8.97;5.07;;;;;;;-145.18;100.00;46615.47;5073905;28;20036;-58
2023/06/20 01:21:53;;;;;;;7.47;5.03;;;;;;;-145.18;100.00;46619.38;5070997;28;20056;-58
2023/06/20 01:24:29;;;;;;;11.60;5.73;;;;;;;-145.18;100.00;46601.78;5073213;28;20042;-59
2023/06/20 01:27:04;;;;;;;8.17;4.87;;;;;;;-145.18;100.00;46619.38;5073010;28;20127;-58
2023/06/20 01:29:36;;;;;;;8.38;5.65;;;;;;;-145.18;100.00;46584.22;5072854;28;20037;-59
2023/06/20 01:32:06;;;;;;;9.23;5.80;;;;;;;-145.18;100.00;46564.69;5072164;28;20036;-58
2023/06/20 01:34:42;;;;;;;8.00;5.33;;;;;;;-145.18;100.00;46593.97;5071101;28;20090;-59
2023/06/20 01:37:13;;;;;;;8.50;5.83;;;;;;;-145.18;100.00;46574.44;5071958;28;20506;-59
2023/06/20 01:39:51;;;;;;;10.13;5.83;;;;;;;-145.18;100.00;46570.53;5072213;28;20028;-59
2023/06/20 01:42:21;;;;;;;12.13;6.20;;;;;;;-145.18;100.00;46566.63;5072207;28;20111;-59
2023/06/20 01:44:47;;;;;;;9.70;5.30;;;;;;;-145.18;100.00;46580.31;5071932;28;20029;-58
2023/06/20 01:47:15;;;;;;;9.03;5.77;;;;;;;-145.18;100.00;46562.72;5071478;28;20032;-59
2023/06/20 01:49:42;;;;;;;9.63;5.57;;;;;;;-145.18;100.00;46558.81;5072024;28;20024;-59
2023/06/20 01:52:10;;;;;;;9.23;5.20;;;;;;;-145.18;100.00;46568.59;5071675;28;20447;-59
2023/06/20 01:54:37;;;;;;;12.00;6.27;;;;;;;-145.18;100.00;46570.53;5072037;28;20036;-58
2023/06/20 01:57:04;;;;;;;9.93;6.07;;;;;;;-145.18;100.00;46599.84;5071157;28;20074;-58
2023/06/20 01:59:30;;;;;;;9.57;6.10;;;;;;;-145.18;100.00;46605.69;5072019;28;20042;-59
2023/06/20 02:01:58;;;;;;;8.60;5.67;;;;;;;-145.18;100.00;46584.22;5072500;28;20379;-59
2023/06/20 02:04:25;;;;;;;8.50;5.90;;;;;;;-145.18;100.00;46593.97;5072571;28;20039;-59
2023/06/20 02:06:50;;;;;;;10.10;5.40;;;;;;;-145.18;100.00;46580.31;5056608;28;20029;-59
2023/06/20 02:09:17;;;;;;;8.13;5.47;;;;;;;-145.18;100.00;46560.78;5056103;28;20373;-59
2023/06/20 02:11:46;;;;;;;9.73;5.70;;;;;;;-145.18;100.00;46562.72;5073270;28;20099;-59
2023/06/20 02:14:13;;;;;;;11.77;6.50;;;;;;;-145.18;100.00;46617.41;5073165;28;20074;-59
2023/06/20 02:16:39;;;;;;;7.57;5.47;;;;;;;-145.18;100.00;46605.69;5073722;28;20028;-58
2023/06/20 02:19:07;;;;;;;9.17;6.43;;;;;;;-145.18;100.00;46590.06;5053622;28;20021;-59
2023/06/20 02:21:36;;;;;;;9.70;6.53;;;;;;;-145.18;100.00;46568.59;5071239;28;20083;-59
2023/06/20 02:24:04;;;;;;;11.20;5.67;;;;;;;-145.18;100.00;46623.28;5071170;28;20432;-59
2023/06/20 02:26:36;;;;;;;11.27;6.30;;;;;;;-145.18;100.00;46615.47;5072029;28;20028;-58
2023/06/20 02:29:07;;;;;;;8.03;5.77;;;;;;;-145.18;100.00;46662.34;5054483;28;20021;-59
2023/06/20 02:31:36;;;;;;;10.67;5.90;;;;;;;-145.18;100.00;46642.81;5070920;28;20032;-59
2023/06/20 02:34:04;;;;;;;9.00;5.97;;;;;;;-145.18;100.00;46646.72;5071964;28;20031;-58
2023/06/20 02:36:31;;;;;;;8.30;5.87;;;;;;;-145.18;100.00;46660.41;5071543;28;20035;-59
2023/06/20 02:38:58;;;;;;;8.57;5.57;;;;;;;-145.18;100.00;46625.22;5068957;28;20033;-59
2023/06/20 02:41:24;;;;;;;8.77;6.30;;;;;;;-145.18;100.00;46597.88;5071606;28;20032;-59
2023/06/20 02:43:49;;;;;;;10.87;6.13;;;;;;;-145.18;100.00;46611.56;5053017;28;20525;-59
2023/06/20 02:46:36;;;;;;;8.40;6.10;;;;;;;-145.18;100.00;46597.88;5068452;28;20119;-59
2023/06/20 02:49:13;;;;;;;9.37;6.37;;;;;;;-145.18;100.00;46607.66;5071389;28;20094;-59
2023/06/20 02:51:56;;;;;;;11.07;6.47;;;;;;;-145.18;100.00;46621.31;5070595;28;20036;-59
2023/06/20 02:54:35;;;;;;;10.83;6.20;;;;;;;-145.18;100.00;46580.31;5070160;28;20021;-59
2023/06/20 02:57:04;;;;;;;12.93;6.57;;;;;;;-145.18;100.00;46615.47;5071606;28;20028;-59
2023/06/20 02:59:33;;;;;;;10.67;6.63;;;;;;;-145.18;100.00;46584.22;5071588;28;20034;-59
2023/06/20 03:02:02;;;;;;;9.03;6.23;;;;;;;-145.18;100.00;46595.94;5071769;28;20032;-59
2023/06/20 03:04:34;;;;;;;8.57;6.37;;;;;;;-145.18;100.00;46592.03;5070944;28;20040;-59
2023/06/20 03:07:03;;;;;;;11.50;6.87;;;;;;;-145.18;100.00;46592.03;5071294;28;20029;-58
2023/06/20 03:09:33;;;;;;;10.20;6.47;;;;;;;-145.18;100.00;46578.34;5073466;28;20032;-59
2023/06/20 03:11:59;;;;;;;10.23;6.40;;;;;;;-145.18;100.00;46551.00;5075786;28;20533;-59
2023/06/20 03:14:24;;;;;;;8.27;6.53;;;;;;;-145.18;100.00;46580.31;5074679;28;20024;-58
2023/06/20 03:16:49;;;;;;;8.53;6.03;;;;;;;-145.18;100.00;46562.72;5055710;28;20038;-59
2023/06/20 03:19:15;;;;;;;10.40;6.13;;;;;;;-145.18;100.00;46568.59;5091220;28;20039;-59
2023/06/20 03:21:40;;;;;;;10.63;6.50;;;;;;;-145.18;100.00;46556.88;5078910;28;20514;-58
2023/06/20 03:24:06;;;;;;;8.73;6.13;;;;;;;-145.18;100.00;46578.34;5074736;28;20082;-59
2023/06/20 03:26:36;;;;;;;10.17;6.80;;;;;;;-145.18;100.00;46568.59;5071468;28;20032;-59
2023/06/20 03:29:02;;;;;;;9.03;6.40;;;;;;;-145.18;100.00;46582.25;5072529;28;20074;-59
2023/06/20 03:31:27;;;;;;;13.47;6.20;;;;;;;-145.18;100.00;46566.63;5076535;28;20427;-59
2023/06/20 03:33:53;;;;;;;12.37;6.30;;;;;;;-145.18;100.00;46570.53;5057875;28;20059;-59
2023/06/20 03:36:18;;;;;;;11.47;6.33;;;;;;;-145.18;100.00;46576.41;5074333;28;20059;-59
2023/06/20 03:38:43;;;;;;;11.77;7.70;;;;;;;-145.18;100.00;46566.63;5075933;28;20485;-62
2023/06/20 03:41:09;;;;;;;10.97;7.07;;;;;;;-145.18;100.00;46593.97;5075636;28;20103;-62
2023/06/20 03:43:34;;;;;;;12.50;6.83;;;;;;;-145.18;100.00;46566.63;5076826;28;20028;-62
2023/06/20 03:45:59;;;;;;;13.63;7.10;;;;;;;-145.18;100.00;46572.50;5074597;28;20055;-62
2023/06/20 03:48:25;;;;;;;12.13;7.67;;;;;;;-145.18;100.00;46562.72;5076784;28;20024;-62
2023/06/20 03:50:50;;;;;;;10.43;7.40;;;;;;;-145.18;100.00;46551.00;5057211;28;20086;-62
2023/06/20 03:53:16;;;;;;;10.50;6.80;;;;;;;-145.18;100.00;46590.06;5055512;28;20043;-62
2023/06/20 03:55:42;;;;;;;10.77;7.93;;;;;;;-145.18;100.00;46564.69;5054171;28;20032;-62
2023/06/20 03:58:07;;;;;;;14.27;8.50;;;;;;;-145.18;100.00;46564.69;5073126;28;20123;-62
2023/06/20 04:00:33;;;;;;;14.33;7.70;;;;;;;-145.18;100.00;46554.91;5075094;28;20111;-62
2023/06/20 04:02:58;;;;;;;16.30;7.73;;;;;;;-145.18;100.00;46572.50;5076971;28;20068;-62
2023/06/20 04:05:24;;;;;;;13.70;7.83;;;;;;;-145.18;100.00;46551.00;5076369;28;20060;-61
2023/06/20 04:07:49;;;;;;;10.17;6.77;;;;;;;-145.18;100.00;46558.81;5074188;28;20025;-62
2023/06/20 04:10:14;;;;;;;11.97;7.00;;;;;;;-145.18;100.00;46556.88;5075702;28;20028;-62
2023/06/20 04:12:41;;;;;;;13.17;7.70;;;;;;;-145.18;100.00;46535.38;5055626;28;20039;-62
2023/06/20 04:15:07;;;;;;;10.20;6.77;;;;;;;-145.18;100.00;46547.09;5075172;28;20029;-61
2023/06/20 04:17:33;;;;;;;9.73;6.60;;;;;;;-145.18;100.00;46541.25;5076541;28;20422;-61
2023/06/20 04:20:04;;;;;;;8.70;6.47;;;;;;;-145.18;100.00;46537.34;5075761;28;20020;-62
2023/06/20 04:22:29;;;;;;;13.67;6.73;;;;;;;-145.18;100.00;46533.44;5072151;28;20056;-62
2023/06/20 04:24:55;;;;;;;9.27;6.60;;;;;;;-145.18;100.00;46539.28;5074560;28;20031;-62
2023/06/20 04:27:20;;;;;;;10.57;6.93;;;;;;;-145.18;100.00;46552.97;5075171;28;20028;-62
2023/06/20 04:29:46;;;;;;;9.97;6.33;;;;;;;-145.18;100.00;46539.28;5073589;28;20032;-62
2023/06/20 04:32:11;;;;;;;10.53;7.37;;;;;;;-145.18;100.00;46543.19;5076285;28;20032;-62
2023/06/20 04:34:36;;;;;;;10.03;7.00;;;;;;;-145.18;100.00;46531.47;5074509;28;20052;-62
2023/06/20 04:37:02;;;;;;;10.33;6.90;;;;;;;-145.18;100.00;46531.47;5075543;28;20028;-62
2023/06/20 04:39:31;;;;;;;14.67;8.13;;;;;;;-145.18;100.00;46533.44;5074809;28;20046;-62
2023/06/20 04:41:56;;;;;;;10.97;6.67;;;;;;;-145.18;100.00;46541.25;5073758;28;20032;-62
2023/06/20 04:44:21;;;;;;;10.20;6.67;;;;;;;-145.18;100.00;46552.97;5073844;28;20032;-62
2023/06/20 04:46:47;;;;;;;9.07;6.60;;;;;;;-145.18;100.00;46537.34;5058395;28;20039;-62
2023/06/20 04:49:12;;;;;;;8.63;6.40;;;;;;;-145.18;100.00;46537.34;5073090;28;20099;-59
2023/06/20 04:51:40;;;;;;;10.97;7.33;;;;;;;-145.18;100.00;46547.09;5074360;28;20036;-59
2023/06/20 04:54:09;;;;;;;12.77;7.27;;;;;;;-145.18;100.00;46551.00;5073740;28;20059;-59
2023/06/20 04:56:40;;;;;;;10.43;7.73;;;;;;;-145.18;100.00;46537.34;5070532;28;20127;-59
2023/06/20 04:59:06;;;;;;;11.47;7.70;;;;;;;-145.18;100.00;46549.06;5073092;28;20032;-59
2023/06/20 05:01:32;;;;;;;13.07;8.00;;;;;;;-145.18;100.00;46551.00;5050030;28;20088;-59
2023/06/20 05:03:58;;;;;;;13.27;8.40;;;;;;;-145.18;100.00;46558.81;5062589;28;20511;-59
2023/06/20 05:06:23;;;;;;;14.03;8.33;;;;;;;-145.18;100.00;46549.06;5067001;28;20031;-59
2023/06/20 05:08:49;;;;;;;12.97;8.37;;;;;;;-145.18;100.00;46549.06;5049954;28;20056;-59
2023/06/20 05:11:14;;;;;;;13.10;8.40;;;;;;;-145.18;100.00;46560.78;5070738;28;20029;-59
2023/06/20 05:13:40;;;;;;;13.03;8.17;;;;;;;-145.18;100.00;46539.28;5068949;28;20106;-59
2023/06/20 05:16:05;;;;;;;10.80;7.80;;;;;;;-145.18;100.00;46554.91;5072032;28;20043;-59
2023/06/20 05:18:31;;;;;;;11.60;8.33;;;;;;;-145.18;100.00;46547.09;5073599;28;20055;-59
2023/06/20 05:20:56;;;;;;;12.40;8.37;;;;;;;-145.18;100.00;46564.69;5072189;28;20143;-59
2023/06/20 05:23:25;;;;;;;10.47;7.93;;;;;;;-145.18;100.00;46568.59;5073599;28;20028;-59
2023/06/20 05:25:50;;;;;;;10.60;7.80;;;;;;;-145.18;100.00;46549.06;5074506;28;20098;-59
2023/06/20 05:28:16;;;;;;;11.73;8.23;;;;;;;-145.18;100.00;46551.00;5056067;28;20472;-59
2023/06/20 05:30:41;;;;;;;13.83;9.03;;;;;;;-145.18;100.00;46566.63;5074725;28;20024;-59
2023/06/20 05:33:08;;;;;;;14.13;8.67;;;;;;;-145.18;100.00;46545.16;5074690;28;20077;-60
2023/06/20 05:35:34;;;;;;;13.93;8.07;;;;;;;-145.18;100.00;46554.91;5056900;28;20028;-60
2023/06/20 05:38:00;;;;;;;11.17;8.30;;;;;;;-145.18;100.00;46541.25;5053255;28;20027;-59
2023/06/20 05:40:25;;;;;;;12.87;8.53;;;;;;;-145.18;100.00;46554.91;5072853;28;20057;-58
2023/06/20 05:42:50;;;;;;;10.73;8.50;;;;;;;-145.18;100.00;46549.06;5074446;28;20057;-59
2023/06/20 05:45:16;;;;;;;14.73;9.27;;;;;;;-145.18;100.00;46543.19;5071967;28;20222;-59
2023/06/20 05:47:43;;;;;;;12.90;9.07;;;;;;;-145.18;100.00;46533.44;5052539;28;20039;-59
2023/06/20 05:50:09;;;;;;;14.33;9.20;;;;;;;-145.18;100.00;46525.63;5074203;28;20046;-59
2023/06/20 05:52:35;;;;;;;10.80;8.13;;;;;;;-145.18;100.00;46572.50;5071238;28;20543;-59
2023/06/20 05:55:01;;;;;;;16.87;9.17;;;;;;;-145.18;100.00;46566.63;5071640;28;20036;-59
2023/06/20 05:57:27;;;;;;;14.07;9.90;;;;;;;-145.18;100.00;46666.25;5073404;28;20024;-59
2023/06/20 05:59:52;;;;;;;16.60;10.67;;;;;;;-145.18;100.00;46713.13;5072810;28;20035;-59
2023/06/20 06:02:20;;;;;;;13.97;10.30;;;;;;;-145.18;100.00;46636.94;5054325;28;20040;-60
2023/06/20 06:04:46;;;;;;;15.90;10.63;;;;;;;-145.18;100.00;46615.47;5055173;28;20487;-59
2023/06/20 06:07:12;;;;;;;15.87;10.67;;;;;;;-145.18;100.00;46584.22;5070857;28;20020;-59
2023/06/20 06:09:37;;;;;;;16.87;10.80;;;;;;;-145.18;100.00;46592.03;5073929;28;20089;-59
2023/06/20 06:12:03;;;;;;;16.47;10.07;;;;;;;-145.18;100.00;46590.06;5070439;28;20054;-59
2023/06/20 06:14:28;;;;;;;13.03;9.43;;;;;;;-145.18;100.00;46593.97;5072059;28;20119;-59
2023/06/20 06:16:55;;;;;;;17.00;10.20;;;;;;;-145.18;100.00;46613.50;5055361;28;20025;-59
2023/06/20 06:19:21;;;;;;;16.63;10.50;;;;;;;-145.18;100.00;46695.56;5071315;28;20102;-59
2023/06/20 06:21:47;;;;;;;15.50;10.33;;;;;;;-145.18;100.00;46658.44;5053724;28;20064;-59
2023/06/20 06:24:13;;;;;;;15.43;10.30;;;;;;;-145.18;100.00;46687.75;5073365;28;20034;-59
2023/06/20 06:26:38;;;;;;;16.03;10.73;;;;;;;-145.18;100.00;46888.94;5052520;28;20123;-59
2023/06/20 06:29:06;;;;;;;13.10;10.20;;;;;;;-145.18;100.00;46953.41;5072095;28;20033;-59
2023/06/20 06:31:35;;;;;;;13.60;9.67;;;;;;;-145.18;100.00;47066.72;5075359;28;20490;-59
2023/06/20 06:34:02;;;;;;;13.83;9.90;;;;;;;-145.18;100.00;47068.66;5081494;28;20480;-59
2023/06/20 06:36:31;;;;;;;13.37;10.50;;;;;;;-145.18;100.00;47074.53;5078812;28;20040;-59
2023/06/20 06:38:57;;;;;;;12.93;10.63;;;;;;;-145.18;100.00;47133.13;5072252;28;20149;-59
2023/06/20 06:41:22;;;;;;;13.07;9.73;;;;;;;-145.18;100.00;47131.19;5082744;28;20036;-59
2023/06/20 06:43:49;;;;;;;13.63;10.40;;;;;;;-145.18;100.00;47123.38;5070749;28;20062;-59
2023/06/20 06:46:14;;;;;;;13.07;10.47;;;;;;;-145.18;100.00;47121.41;5076281;28;20036;-59
2023/06/20 06:48:39;;;;;;;17.13;10.10;;;;;;;-145.18;100.00;47123.38;5073299;28;20086;-59
2023/06/20 06:51:06;;;;;;;15.13;10.50;;;;;;;-145.18;100.00;47123.38;5073827;28;20364;-59
2023/06/20 06:53:31;;;;;;;16.03;10.37;;;;;;;-145.18;100.00;47131.19;5076509;28;20523;-59
2023/06/20 06:55:56;;;;;;;14.10;9.90;;;;;;;-145.18;100.00;47135.09;5087236;28;20036;-59
2023/06/20 06:58:22;;;;;;;13.23;9.50;;;;;;;-145.18;100.00;47144.84;5076504;28;20536;-59
2023/06/20 07:00:48;;;;;;;13.20;10.33;;;;;;;-145.18;100.00;47115.56;5071677;28;20060;-59
2023/06/20 07:03:15;;;;;;;15.43;9.63;;;;;;;-145.18;100.00;47129.22;5088216;28;20032;-59
2023/06/20 07:05:40;;;;;;;13.00;10.03;;;;;;;-145.18;100.00;47097.97;5056148;28;20033;-59
2023/06/20 07:08:05;;;;;;;13.27;9.70;;;;;;;-145.18;100.00;47088.19;5072835;28;20037;-59
2023/06/20 07:10:31;;;;;;;11.83;8.63;;;;;;;-145.18;100.00;47074.53;5073505;28;20169;-59
2023/06/20 07:12:56;;;;;;;12.27;8.97;;;;;;;-145.18;100.00;47086.25;5071974;28;20047;-59
2023/06/20 07:15:22;;;;;;;14.52;8.90;;;;;;;-145.18;100.00;47070.63;5052392;28;20075;-59
2023/06/20 07:17:47;;;;;;;11.85;8.60;;;;;;;-145.18;100.00;47051.09;5071727;28;20074;-59
2023/06/20 07:20:13;;;;;;;18.33;9.27;;;;;;;-145.18;100.00;47058.91;5072371;28;20048;-59
2023/06/20 07:22:38;;;;;;;11.65;8.38;;;;;;;-145.18;100.00;47072.56;5072546;28;20638;-59
2023/06/20 07:25:04;;;;;;;14.18;8.50;;;;;;;-145.18;100.00;47068.66;5071210;28;20036;-59
2023/06/20 07:27:30;;;;;;;16.98;8.85;;;;;;;-145.18;100.00;47078.44;5053185;28;20048;-59
2023/06/20 07:29:55;;;;;;;10.82;7.90;;;;;;;-145.18;100.00;47080.38;5053091;28;20036;-59
2023/06/20 07:32:21;;;;;;;16.27;9.20;;;;;;;-145.18;100.00;47125.31;5055392;28;20035;-59
2023/06/20 07:34:48;;;;;;;19.48;8.00;;;;;;;-145.18;100.00;47092.09;5080278;28;20024;-59
2023/06/20 07:37:14;;;;;;;17.92;8.02;;;;;;;-145.18;100.00;47097.97;5072601;28;20484;-60
2023/06/20 07:39:42;;;;;;;13.40;8.02;;;;;;;-145.18;100.00;47068.66;5053176;28;20103;-59
2023/06/20 07:42:08;;;;;;;10.02;8.02;;;;;;;-145.18;100.00;47049.13;5070685;28;20056;-59
2023/06/20 07:44:34;;;;;;;17.02;8.82;;;;;;;-145.18;100.00;47062.81;5070963;28;20052;-59
2023/06/20 07:46:59;;;;;;;11.23;7.85;;;;;;;-145.18;100.00;47058.91;5072362;28;20051;-59
2023/06/20 07:49:24;;;;;;;11.27;8.65;;;;;;;-145.18;100.00;47058.91;5073364;28;20029;-60
2023/06/20 07:51:50;;;;;;;11.65;8.32;;;;;;;-145.18;100.00;47051.09;5074192;28;20368;-59
2023/06/20 07:54:15;;;;;;;11.88;8.15;;;;;;;-145.18;100.00;47055.00;5035505;28;20029;-59
2023/06/20 07:56:41;;;;;;;16.95;8.18;;;;;;;-145.18;100.00;47019.81;5075306;28;20451;-59
2023/06/20 07:59:06;;;;;;;10.52;7.60;;;;;;;-145.18;100.00;47056.94;5075360;28;20487;-59
2023/06/20 08:01:31;;;;;;;31.25;7.30;;;;;;;-145.18;100.00;47015.91;5055402;28;20523;-59
2023/06/20 08:03:57;;;;;;;12.77;7.85;;;;;;;-145.18;100.00;46994.44;5079965;28;20028;-59
2023/06/20 08:06:22;;;;;;;12.63;7.85;;;;;;;-145.18;100.00;47017.88;5069935;28;20033;-59
2023/06/20 08:08:48;;;;;;;16.50;8.23;;;;;;;-145.18;100.00;47017.88;5075249;28;20553;-59
2023/06/20 08:11:13;;;;;;;13.85;8.35;;;;;;;-145.18;100.00;46996.38;5073882;28;20036;-59
2023/06/20 08:13:39;;;;;;;10.88;7.53;;;;;;;-145.18;100.00;47013.97;5073767;28;20050;-58
2023/06/20 08:16:05;;;;;;;9.23;6.93;;;;;;;-145.18;100.00;46998.34;5076059;28;20037;-59
2023/06/20 08:18:30;;;;;;;10.55;7.85;;;;;;;-145.18;100.00;46996.38;5073709;28;20037;-63
2023/06/20 08:20:56;;;;;;;10.20;6.95;;;;;;;-145.18;100.00;46996.38;5071247;28;20594;-63
2023/06/20 08:23:25;;;;;;;10.68;5.63;;;;;;;-145.18;100.00;46992.47;5056069;28;20486;-63
2023/06/20 08:25:56;;;;;;;10.60;6.68;;;;;;;-145.18;100.00;47006.16;5088800;28;20039;-63
2023/06/20 08:28:24;;;;;;;7.50;5.90;;;;;;;-145.18;100.00;47002.25;5075965;28;20021;-63
2023/06/20 08:30:50;;;;;;;12.00;6.22;;;;;;;-145.18;100.00;46990.53;5073293;28;20029;-63
2023/06/20 08:33:15;;;;;;;9.73;6.50;;;;;;;-145.18;100.00;46996.38;5074335;28;20031;-63
2023/06/20 08:35:41;;;;;;;7.45;5.82;;;;;;;-145.18;100.00;46996.38;5075863;28;20043;-63
2023/06/20 08:38:06;;;;;;;8.90;6.38;;;;;;;-145.18;100.00;46980.75;5071755;28;20036;-63
2023/06/20 08:40:33;;;;;;;8.65;7.05;;;;;;;-145.18;100.00;46957.31;5073072;28;20024;-62
2023/06/20 08:42:59;;;;;;;12.98;6.82;;;;;;;-145.18;100.00;46965.13;5073628;28;20165;-63
2023/06/20 08:45:24;;;;;;;11.85;6.90;;;;;;;-145.18;100.00;46976.84;5073738;28;20025;-63
2023/06/20 08:47:50;;;;;;;10.50;5.07;;;;;;;-145.18;100.00;46963.19;5052286;28;20025;-63
2023/06/20 08:50:15;;;;;;;8.80;5.88;;;;;;;-145.18;100.00;46967.09;5075104;28;20040;-63
2023/06/20 08:52:48;;;;;;;12.10;5.70;;;;;;;-145.18;100.00;46953.41;5075376;28;20614;-63
2023/06/20 08:55:15;;;;;;;9.98;5.68;;;;;;;-145.18;100.00;46949.50;5073228;28;20046;-63
2023/06/20 08:57:41;;;;;;;8.93;5.60;;;;;;;-145.18;100.00;46959.25;5073351;28;20094;-63
2023/06/20 09:00:11;;;;;;;5.22;4.18;;;;;;;-145.18;100.00;46947.53;5073459;28;20052;-62
2023/06/20 09:02:36;;;;;;;6.32;4.32;;;;;;;-145.18;100.00;46924.09;5072920;28;20043;-63
2023/06/20 09:05:03;;;;;;;8.27;4.78;;;;;;;-145.18;100.00;46929.97;5072890;28;20111;-63
2023/06/20 09:07:39;;;;;;;7.05;4.35;;;;;;;-145.18;100.00;46926.06;5070664;28;20032;-62
2023/06/20 09:10:09;;;;;;;7.05;3.55;;;;;;;-145.18;100.00;46941.69;5072713;28;20036;-63
2023/06/20 09:12:47;;;;;;;5.40;2.97;;;;;;;-145.18;100.00;46922.16;5072880;28;20146;-63
2023/06/20 09:15:16;;;;;;;4.70;2.92;;;;;;;-145.18;100.00;46926.06;5070354;28;20082;-63
2023/06/20 09:17:45;;;;;;;12.13;4.15;;;;;;;-145.18;100.00;46929.97;5071561;28;20040;-62
2023/06/20 09:20:13;;;;;;;19.85;4.25;;;;;;;-145.18;100.00;46926.06;5076083;28;20028;-63
2023/06/20 09:22:39;;;;;;;4.15;3.05;;;;;;;-145.18;100.00;46929.97;5073232;28;20577;-63
2023/06/20 09:25:06;;;;;;;5.53;3.28;;;;;;;-145.18;100.00;46929.97;5072495;28;20108;-63
2023/06/20 09:27:41;;;;;;;9.68;3.63;;;;;;;-145.18;100.00;46918.25;5087082;28;20489;-62
2023/06/20 09:30:08;;;;;;;4.20;3.50;;;;;;;-145.18;100.00;46926.06;5071556;28;20573;-59
2023/06/20 09:32:40;;;;;;;4.68;3.97;;;;;;;-145.18;100.00;46902.63;5072789;28;20400;-59
2023/06/20 09:35:15;;;;;;;5.88;3.55;;;;;;;-145.18;100.00;46914.34;5072695;28;20426;-59
2023/06/20 09:37:42;;;;;;;5.82;3.92;;;;;;;-145.18;100.00;46910.44;5071955;28;20084;-59
2023/06/20 09:40:13;;;;;;;4.50;3.38;;;;;;;-145.18;100.00;46900.66;5072177;28;20031;-60
2023/06/20 09:42:40;;;;;;;9.15;4.40;;;;;;;-145.18;100.00;46906.53;5072868;28;20033;-59
2023/06/20 09:45:07;;;;;;;7.22;4.93;;;;;;;-145.18;100.00;46904.56;5072411;28;20028;-59
2023/06/20 09:47:35;;;;;;;13.57;3.78;;;;;;;-145.18;100.00;46908.47;5073136;28;20033;-59
2023/06/20 09:50:05;;;;;;;17.42;5.25;;;;;;;-145.18;100.00;46900.66;5072585;28;20035;-60
2023/06/20 09:52:38;;;;;;;7.85;4.43;;;;;;;-145.18;100.00;46892.84;5071599;28;20086;-60
2023/06/20 09:55:09;;;;;;;12.35;4.50;;;;;;;-145.18;100.00;46898.72;5070619;28;20111;-59
2023/06/20 09:57:43;;;;;;;5.03;4.28;;;;;;;-145.18;100.00;46926.06;5070948;28;20063;-59
2023/06/20 10:00:17;;;;;;;4.30;3.55;;;;;;;-145.18;100.00;46902.63;5053509;28;20407;-60
2023/06/20 10:02:46;;;;;;;6.93;4.13;;;;;;;-145.18;100.00;46898.72;5071212;28;20020;-59
2023/06/20 10:05:16;;;;;;;5.47;4.03;;;;;;;-145.18;100.00;46900.66;5071873;28;20028;-59
2023/06/20 10:07:43;;;;;;;6.90;4.07;;;;;;;-145.18;100.00;46890.91;5070474;28;20078;-59
2023/06/20 10:10:10;;;;;;;7.32;4.22;;;;;;;-145.18;100.00;46888.94;5071828;28;20105;-60
2023/06/20 10:12:37;;;;;;;5.85;4.80;;;;;;;-145.18;100.00;46898.72;5072251;28;20039;-60
2023/06/20 10:15:04;;;;;;;4.57;3.78;;;;;;;-145.18;100.00;46894.81;5071294;28;20039;-59
2023/06/20 10:17:35;;;;;;;7.15;3.88;;;;;;;-145.18;100.00;46873.31;5070881;28;20372;-59
2023/06/20 10:20:04;;;;;;;4.78;3.78;;;;;;;-145.18;100.00;46875.28;5072960;28;20032;-59
2023/06/20 10:22:37;;;;;;;17.48;4.18;;;;;;;-145.18;100.00;46869.41;5072804;28;20044;-60
2023/06/20 10:25:14;;;;;;;4.65;4.10;;;;;;;-145.18;100.00;46871.38;5071025;28;20549;-60
2023/06/20 10:28:05;;;;;;;6.32;4.30;;;;;;;-145.18;100.00;46865.50;5070335;28;20419;-59
2023/06/20 10:30:46;;;;;;;15.25;4.97;;;;;;;-145.18;100.00;46865.50;5071516;28;20055;-59
2023/06/20 10:33:12;;;;;;;7.28;3.60;;;;;;;-145.18;100.00;46865.50;5071195;28;20028;-60
2023/06/20 10:36:10;;;;;;;8.88;3.28;;;;;;;-145.18;100.00;46861.59;5071523;28;20024;-59
2023/06/20 10:38:59;;;;;;;4.07;3.20;;;;;;;-145.18;100.00;46873.31;5071735;28;20090;-59
2023/06/20 10:41:26;;;;;;;9.27;3.63;;;;;;;-145.18;100.00;46883.09;5069401;28;20037;-59
2023/06/20 10:43:52;;;;;;;3.92;3.35;;;;;;;-145.18;100.00;46863.53;5072414;28;20114;-59
2023/06/20 10:46:21;;;;;;;7.72;3.38;;;;;;;-145.18;100.00;46871.38;5074525;28;20028;-59
2023/06/20 10:48:46;;;;;;;6.25;3.90;;;;;;;-145.18;100.00;46871.38;5081906;28;20016;-60
2023/06/20 10:51:12;;;;;;;4.38;3.65;;;;;;;-145.18;100.00;46867.44;5075380;28;20031;-60
2023/06/20 10:53:37;;;;;;;4.68;3.22;;;;;;;-145.18;100.00;46853.78;5070562;28;20547;-60
2023/06/20 10:56:03;;;;;;;5.50;3.60;;;;;;;-145.18;100.00;46840.09;5069719;28;20036;-60
2023/06/20 10:58:28;;;;;;;8.55;3.50;;;;;;;-145.18;100.00;46836.19;5071071;28;20181;-60
2023/06/20 11:00:54;;;;;;;4.72;3.15;;;;;;;-145.18;100.00;46844.00;5072322;28;20052;-60
2023/06/20 11:03:21;;;;;;;4.30;3.35;;;;;;;-145.18;100.00;46834.25;5072581;28;20361;-60
2023/06/20 11:05:51;;;;;;;5.40;3.47;;;;;;;-145.18;100.00;46830.34;5070742;28;20036;-60
2023/06/20 11:08:27;;;;;;;3.80;3.30;;;;;;;-145.18;100.00;46830.34;5068261;28;20031;-60